createdAt,value
2018-12-31T00:00:55.429Z,22.67
2018-12-31T00:03:24.778Z,21.82
2018-12-31T00:05:53.917Z,20.95
2018-12-31T00:08:22.941Z,21.52
2018-12-31T00:10:52.426Z,21.30
2018-12-31T00:13:24.652Z,22.25
2018-12-31T00:15:53.913Z,23.15
2018-12-31T00:18:23.107Z,19.73
2018-12-31T00:20:52.410Z,22.42
2018-12-31T00:23:21.724Z,22.93
2018-12-31T00:25:50.832Z,22.37
2018-12-31T00:28:20.077Z,21.75
2018-12-31T00:30:49.171Z,21.90
2018-12-31T00:33:18.338Z,23.20
2018-12-31T00:35:48.166Z,23.30
2018-12-31T00:38:17.423Z,22.48
2018-12-31T00:40:46.563Z,21.65
2018-12-31T00:43:15.786Z,21.57
2018-12-31T00:45:44.937Z,22.30
2018-12-31T00:48:14.232Z,20.85
2018-12-31T00:50:43.411Z,23.35
2018-12-31T00:53:12.594Z,21.73
2018-12-31T00:55:41.832Z,22.22
2018-12-31T00:58:11.355Z,20.72
2018-12-31T01:00:40.530Z,26.15
2018-12-31T01:03:09.713Z,25.62
2018-12-31T01:05:38.868Z,26.20
2018-12-31T01:08:08.087Z,29.50
2018-12-31T01:10:37.302Z,26.30
2018-12-31T01:13:06.569Z,26.02
2018-12-31T01:15:35.822Z,26.60
2018-12-31T01:18:05.003Z,22.07
2018-12-31T01:20:34.248Z,21.30
2018-12-31T01:23:03.564Z,22.07
2018-12-31T01:25:32.694Z,20.00
2018-12-31T01:28:01.900Z,25.10
2018-12-31T01:30:31.079Z,21.50
2018-12-31T01:33:00.314Z,24.77
2018-12-31T01:35:29.375Z,21.33
2018-12-31T01:37:58.569Z,21.45
2018-12-31T01:40:27.725Z,20.92
2018-12-31T01:42:56.934Z,19.92
2018-12-31T01:45:26.144Z,20.75
2018-12-31T01:47:55.476Z,17.27
2018-12-31T01:50:24.728Z,17.95
2018-12-31T01:52:56.340Z,21.05
2018-12-31T01:55:25.478Z,19.17
2018-12-31T01:57:54.712Z,18.00
2018-12-31T02:00:23.834Z,17.98
2018-12-31T02:02:53.104Z,16.32
2018-12-31T02:05:22.339Z,17.85
2018-12-31T02:07:51.501Z,16.10
2018-12-31T02:10:20.742Z,16.80
2018-12-31T02:12:49.936Z,17.05
2018-12-31T02:15:19.182Z,17.10
2018-12-31T02:17:48.434Z,17.73
2018-12-31T02:20:17.705Z,17.37
2018-12-31T02:22:46.863Z,17.05
2018-12-31T02:25:16.021Z,17.25
2018-12-31T02:27:45.182Z,16.85
2018-12-31T02:30:15.222Z,17.20
2018-12-31T02:32:44.507Z,17.40
2018-12-31T02:35:14.165Z,17.60
2018-12-31T02:37:43.301Z,16.12
2018-12-31T02:40:12.489Z,17.05
2018-12-31T02:42:41.721Z,18.98
2018-12-31T02:45:11.243Z,19.30
2018-12-31T02:47:40.401Z,18.70
2018-12-31T02:50:09.693Z,17.98
2018-12-31T02:52:38.894Z,17.50
2018-12-31T02:55:08.171Z,16.57
2018-12-31T02:57:37.359Z,17.23
2018-12-31T03:00:06.806Z,16.37
2018-12-31T03:02:35.984Z,17.80
2018-12-31T03:05:05.724Z,18.67
2018-12-31T03:07:34.910Z,16.77
2018-12-31T03:10:04.469Z,18.95
2018-12-31T03:12:33.674Z,19.02
2018-12-31T03:15:02.998Z,20.12
2018-12-31T03:17:32.248Z,15.43
2018-12-31T03:20:01.410Z,17.75
2018-12-31T03:22:30.544Z,15.03
2018-12-31T03:24:59.813Z,13.80
2018-12-31T03:27:29.013Z,15.18
2018-12-31T03:29:58.286Z,15.50
2018-12-31T03:32:27.585Z,15.32
2018-12-31T03:34:56.791Z,15.48
2018-12-31T03:37:25.957Z,14.65
2018-12-31T03:39:55.172Z,16.30
2018-12-31T03:42:24.410Z,15.98
2018-12-31T03:44:53.635Z,14.73
2018-12-31T03:47:22.822Z,14.20
2018-12-31T03:49:52.076Z,19.90
2018-12-31T03:52:21.263Z,24.87
2018-12-31T03:54:50.411Z,35.40
2018-12-31T03:57:19.714Z,29.30
2018-12-31T03:59:48.870Z,26.10
2018-12-31T04:02:18.088Z,19.45
2018-12-31T04:04:47.250Z,14.65
2018-12-31T04:07:16.501Z,13.32
2018-12-31T04:09:45.677Z,12.47
2018-12-31T04:12:14.851Z,13.08
2018-12-31T04:14:44.064Z,12.53
2018-12-31T04:17:13.356Z,10.85
2018-12-31T04:19:42.528Z,11.67
2018-12-31T04:22:11.680Z,12.37
2018-12-31T04:24:40.872Z,12.33
2018-12-31T04:27:09.981Z,13.05
2018-12-31T04:29:39.130Z,11.10
2018-12-31T04:32:08.314Z,12.80
2018-12-31T04:34:37.514Z,12.65
2018-12-31T04:37:06.760Z,13.75
2018-12-31T04:39:35.952Z,13.83
2018-12-31T04:42:05.101Z,12.47
2018-12-31T04:44:34.284Z,13.68
2018-12-31T04:47:03.474Z,15.98
2018-12-31T04:49:32.661Z,15.43
2018-12-31T04:52:01.934Z,13.80
2018-12-31T04:54:31.226Z,15.10
2018-12-31T04:57:00.516Z,13.70
2018-12-31T04:59:29.743Z,15.70
2018-12-31T05:01:58.974Z,16.07
2018-12-31T05:04:28.220Z,17.67
2018-12-31T05:06:57.529Z,17.00
2018-12-31T05:09:27.480Z,18.92
2018-12-31T05:11:56.656Z,18.15
2018-12-31T05:14:25.947Z,19.80
2018-12-31T05:16:55.216Z,18.85
2018-12-31T05:19:24.490Z,19.55
2018-12-31T05:21:53.726Z,20.75
2018-12-31T05:24:22.924Z,20.43
2018-12-31T05:26:52.241Z,18.80
2018-12-31T05:29:21.506Z,21.45
2018-12-31T05:31:50.941Z,20.70
2018-12-31T05:34:20.259Z,21.35
2018-12-31T05:36:49.512Z,22.07
2018-12-31T05:39:18.693Z,22.95
2018-12-31T05:41:47.991Z,22.87
2018-12-31T05:44:17.188Z,21.85
2018-12-31T05:46:46.520Z,23.25
2018-12-31T05:49:15.802Z,25.05
2018-12-31T05:51:45.154Z,23.30
2018-12-31T05:54:14.398Z,25.15
2018-12-31T05:56:43.614Z,24.40
2018-12-31T05:59:12.846Z,24.18
2018-12-31T06:01:42.134Z,24.50
2018-12-31T06:04:11.448Z,25.17
2018-12-31T06:06:40.634Z,25.97
2018-12-31T06:09:09.897Z,25.72
2018-12-31T06:11:39.151Z,23.92
2018-12-31T06:14:08.494Z,24.00
2018-12-31T06:16:37.703Z,28.30
2018-12-31T06:19:07.013Z,24.35
2018-12-31T06:21:36.306Z,24.98
2018-12-31T06:24:05.534Z,25.55
2018-12-31T06:26:34.716Z,25.55
2018-12-31T06:29:04.005Z,26.27
2018-12-31T06:31:33.174Z,26.52
2018-12-31T06:34:02.499Z,27.48
2018-12-31T06:36:31.710Z,26.50
2018-12-31T06:39:00.941Z,28.30
2018-12-31T06:41:30.167Z,27.25
2018-12-31T06:43:59.389Z,26.02
2018-12-31T06:46:28.689Z,25.25
2018-12-31T06:48:58.139Z,26.37
2018-12-31T06:51:27.395Z,25.72
2018-12-31T06:53:56.710Z,24.27
2018-12-31T06:56:25.914Z,26.50
2018-12-31T06:58:55.114Z,26.93
2018-12-31T07:01:24.448Z,27.60
2018-12-31T07:03:53.698Z,26.35
2018-12-31T07:06:22.913Z,27.70
2018-12-31T07:08:52.049Z,28.32
2018-12-31T07:11:21.299Z,28.15
2018-12-31T07:13:50.445Z,28.50
2018-12-31T07:16:19.674Z,25.77
2018-12-31T07:18:49.040Z,28.00
2018-12-31T07:21:18.309Z,27.58
2018-12-31T07:23:47.446Z,28.20
2018-12-31T07:26:16.692Z,27.05
2018-12-31T07:28:45.857Z,26.57
2018-12-31T07:31:14.995Z,28.32
2018-12-31T07:33:44.244Z,30.50
2018-12-31T07:36:13.435Z,30.57
2018-12-31T07:38:43.036Z,30.70
2018-12-31T07:41:12.203Z,29.93
2018-12-31T07:43:41.366Z,28.27
2018-12-31T07:46:10.629Z,29.10
2018-12-31T07:48:39.905Z,31.55
2018-12-31T07:51:09.083Z,31.12
2018-12-31T07:53:38.279Z,32.25
2018-12-31T07:56:07.509Z,32.80
2018-12-31T07:58:36.804Z,31.00
2018-12-31T08:01:05.986Z,32.30
2018-12-31T08:03:35.289Z,31.90
2018-12-31T08:06:04.589Z,33.30
2018-12-31T08:08:33.803Z,36.20
2018-12-31T08:11:03.319Z,33.58
2018-12-31T08:13:32.497Z,31.20
2018-12-31T08:16:01.749Z,35.78
2018-12-31T08:18:30.941Z,33.38
2018-12-31T08:21:00.105Z,32.93
2018-12-31T08:23:30.976Z,34.47
2018-12-31T08:26:00.207Z,35.40
2018-12-31T08:28:29.490Z,33.75
2018-12-31T08:30:58.661Z,32.35
2018-12-31T08:33:28.002Z,32.47
2018-12-31T08:35:57.230Z,35.00
2018-12-31T08:38:26.587Z,32.75
2018-12-31T08:40:55.831Z,33.67
2018-12-31T08:43:25.103Z,35.35
2018-12-31T08:45:54.952Z,36.30
2018-12-31T08:48:24.143Z,35.10
2018-12-31T08:50:53.385Z,34.53
2018-12-31T08:53:22.592Z,37.28
2018-12-31T08:55:51.854Z,38.40
2018-12-31T08:58:21.033Z,36.77
2018-12-31T09:00:50.502Z,36.80
2018-12-31T09:03:19.684Z,35.08
2018-12-31T09:05:48.925Z,36.05
2018-12-31T09:08:18.194Z,36.23
2018-12-31T09:10:47.532Z,38.67
2018-12-31T09:13:16.689Z,34.30
2018-12-31T09:15:45.872Z,37.03
2018-12-31T09:18:15.014Z,36.47
2018-12-31T09:20:44.279Z,39.30
2018-12-31T09:23:13.749Z,39.13
2018-12-31T09:25:42.920Z,42.33
2018-12-31T09:28:12.048Z,42.50
2018-12-31T09:30:41.232Z,38.27
2018-12-31T09:33:10.551Z,36.57
2018-12-31T09:35:39.747Z,38.50
2018-12-31T09:38:09.092Z,37.73
2018-12-31T09:40:38.281Z,38.90
2018-12-31T09:43:07.645Z,37.65
2018-12-31T09:45:36.939Z,40.70
2018-12-31T09:48:06.238Z,39.63
2018-12-31T09:50:36.853Z,40.73
2018-12-31T09:53:06.155Z,40.43
2018-12-31T09:55:35.374Z,42.67
2018-12-31T09:58:17.313Z,40.08
2018-12-31T10:00:46.809Z,40.63
2018-12-31T10:03:15.999Z,37.87
2018-12-31T10:05:45.221Z,38.35
2018-12-31T10:08:16.808Z,39.85
2018-12-31T10:10:47.569Z,38.78
2018-12-31T10:13:16.863Z,39.10
2018-12-31T10:15:46.112Z,38.80
2018-12-31T10:18:16.082Z,39.98
2018-12-31T10:20:45.254Z,40.23
2018-12-31T10:23:14.795Z,40.55
2018-12-31T10:25:44.162Z,38.73
2018-12-31T10:28:13.315Z,39.97
2018-12-31T10:30:45.056Z,39.10
2018-12-31T10:33:14.359Z,40.60
2018-12-31T10:35:43.592Z,40.80
2018-12-31T10:38:13.030Z,44.87
2018-12-31T10:40:42.232Z,42.10
2018-12-31T10:43:14.010Z,39.10
2018-12-31T10:45:43.187Z,40.03
2018-12-31T10:48:12.379Z,38.63
2018-12-31T10:50:41.483Z,40.00
2018-12-31T10:53:10.959Z,37.17
2018-12-31T10:55:40.098Z,40.83
2018-12-31T10:58:09.341Z,41.70
2018-12-31T11:00:38.502Z,42.33
2018-12-31T11:03:07.745Z,38.30
2018-12-31T11:05:36.936Z,40.03
2018-12-31T11:08:06.160Z,42.40
2018-12-31T11:10:35.434Z,59.37
2018-12-31T11:13:04.644Z,57.60
2018-12-31T11:15:33.864Z,52.73
2018-12-31T11:18:03.265Z,48.15
2018-12-31T11:20:36.755Z,42.90
2018-12-31T11:23:06.832Z,41.47
2018-12-31T11:25:40.221Z,40.38
2018-12-31T11:28:09.625Z,42.60
2018-12-31T11:30:48.184Z,39.40
2018-12-31T11:33:17.566Z,39.20
2018-12-31T11:35:46.859Z,39.40
2018-12-31T11:38:17.597Z,41.27
2018-12-31T11:40:47.293Z,39.60
2018-12-31T11:43:16.651Z,42.60
2018-12-31T11:45:45.824Z,44.97
2018-12-31T11:48:14.979Z,39.97
2018-12-31T11:50:44.130Z,37.90
2018-12-31T11:53:13.659Z,40.78
2018-12-31T11:55:42.873Z,37.67
2018-12-31T11:58:12.093Z,38.10
2018-12-31T12:00:41.383Z,36.43
2018-12-31T12:03:11.210Z,34.45
2018-12-31T12:05:43.928Z,37.00
2018-12-31T12:08:13.190Z,33.83
2018-12-31T12:10:42.508Z,37.07
2018-12-31T12:13:14.848Z,34.83
2018-12-31T12:15:44.269Z,34.27
2018-12-31T12:18:13.534Z,35.70
2018-12-31T12:20:42.735Z,34.70
2018-12-31T12:23:11.974Z,34.37
2018-12-31T12:25:41.237Z,37.93
2018-12-31T12:28:10.909Z,36.15
2018-12-31T12:30:40.175Z,36.30
2018-12-31T12:33:09.774Z,37.27
2018-12-31T12:35:39.010Z,36.13
2018-12-31T12:38:08.659Z,37.42
2018-12-31T12:40:38.686Z,36.43
2018-12-31T12:43:08.017Z,36.50
2018-12-31T12:45:37.692Z,38.23
2018-12-31T12:48:07.209Z,38.17
2018-12-31T12:50:36.429Z,37.57
2018-12-31T12:53:05.965Z,36.80
2018-12-31T12:55:35.217Z,39.00
2018-12-31T12:58:04.479Z,35.07
2018-12-31T13:00:34.239Z,35.53
2018-12-31T13:03:05.773Z,37.53
2018-12-31T13:05:35.054Z,36.00
2018-12-31T13:08:04.226Z,36.30
2018-12-31T13:10:33.432Z,35.90
2018-12-31T13:13:02.714Z,34.57
2018-12-31T13:15:32.810Z,36.57
2018-12-31T13:18:02.096Z,36.20
2018-12-31T13:20:31.865Z,35.90
2018-12-31T13:23:01.065Z,37.37
2018-12-31T13:25:30.303Z,34.30
2018-12-31T13:27:59.548Z,35.00
2018-12-31T13:30:28.824Z,36.03
2018-12-31T13:32:58.034Z,37.67
2018-12-31T13:35:28.328Z,37.73
2018-12-31T13:37:58.008Z,35.67
2018-12-31T13:40:27.352Z,36.70
2018-12-31T13:42:56.619Z,34.90
2018-12-31T13:45:25.907Z,38.40
2018-12-31T13:47:55.546Z,36.80
2018-12-31T13:50:27.304Z,36.40
2018-12-31T13:52:56.743Z,36.40
2018-12-31T13:55:26.248Z,37.80
2018-12-31T13:57:57.008Z,35.43
2018-12-31T14:00:26.554Z,39.77
2018-12-31T14:02:56.173Z,39.63
2018-12-31T14:05:25.328Z,39.37
2018-12-31T14:07:54.472Z,39.50
2018-12-31T14:10:23.777Z,36.03
2018-12-31T14:12:53.075Z,32.97
2018-12-31T14:15:22.375Z,34.73
2018-12-31T14:17:51.598Z,38.97
2018-12-31T14:20:20.942Z,56.10
2018-12-31T14:22:50.646Z,33.97
2018-12-31T14:25:22.778Z,34.87
2018-12-31T14:27:53.784Z,34.10
2018-12-31T14:30:23.052Z,36.17
2018-12-31T14:32:55.118Z,33.13
2018-12-31T14:35:25.592Z,32.33
2018-12-31T14:37:58.173Z,32.50
2018-12-31T14:40:27.574Z,34.43
2018-12-31T14:42:56.710Z,38.20
2018-12-31T14:45:26.859Z,38.33
2018-12-31T14:47:56.157Z,37.03
2018-12-31T14:50:25.418Z,37.53
2018-12-31T14:52:54.714Z,38.53
2018-12-31T14:55:23.950Z,37.80
2018-12-31T14:57:53.244Z,33.30
2018-12-31T15:00:22.414Z,32.50
2018-12-31T15:02:51.669Z,35.53
2018-12-31T15:05:21.752Z,36.27
2018-12-31T15:07:51.315Z,37.43
2018-12-31T15:10:20.621Z,36.90
2018-12-31T15:12:50.668Z,35.80
2018-12-31T15:15:19.894Z,37.47
2018-12-31T15:17:49.178Z,37.37
2018-12-31T15:20:18.452Z,37.20
2018-12-31T15:22:47.710Z,41.80
2018-12-31T15:25:17.265Z,44.50
2018-12-31T15:27:46.572Z,40.80
2018-12-31T15:30:15.886Z,38.30
2018-12-31T15:32:45.064Z,33.70
2018-12-31T15:35:14.273Z,34.60
2018-12-31T15:37:43.970Z,34.57
2018-12-31T15:40:14.448Z,35.30
2018-12-31T15:42:43.777Z,34.63
2018-12-31T15:45:12.978Z,36.40
2018-12-31T15:47:43.930Z,31.60
2018-12-31T15:50:13.335Z,34.70
2018-12-31T15:52:42.699Z,37.47
2018-12-31T15:55:11.815Z,39.43
2018-12-31T15:57:41.037Z,37.63
2018-12-31T16:00:11.078Z,37.70
2018-12-31T16:02:40.315Z,38.90
2018-12-31T16:05:09.736Z,39.40
2018-12-31T16:07:45.612Z,37.47
2018-12-31T16:10:11.395Z,35.70
2018-12-31T16:12:42.785Z,37.50
2018-12-31T16:15:12.198Z,37.23
2018-12-31T16:17:41.356Z,37.40
2018-12-31T16:20:11.213Z,37.57
2018-12-31T16:22:40.453Z,36.17
2018-12-31T16:25:09.972Z,35.87
2018-12-31T16:27:39.122Z,37.30
2018-12-31T16:30:08.906Z,37.33
2018-12-31T16:32:38.408Z,36.30
2018-12-31T16:35:07.579Z,36.57
2018-12-31T16:37:37.043Z,33.80
2018-12-31T16:40:06.636Z,38.87
2018-12-31T16:42:35.787Z,38.40
2018-12-31T16:45:05.847Z,37.40
2018-12-31T16:47:35.171Z,41.53
2018-12-31T16:50:04.813Z,39.83
2018-12-31T16:52:34.083Z,40.20
2018-12-31T16:55:03.367Z,38.60
2018-12-31T16:57:32.697Z,41.70
2018-12-31T17:00:01.979Z,40.33
2018-12-31T17:02:31.195Z,39.37
2018-12-31T17:05:00.555Z,39.77
2018-12-31T17:07:29.747Z,39.77
2018-12-31T17:09:58.902Z,35.53
2018-12-31T17:12:28.561Z,41.50
2018-12-31T17:14:58.233Z,38.93
2018-12-31T17:17:27.498Z,41.03
2018-12-31T17:19:56.707Z,43.63
2018-12-31T17:22:26.089Z,44.50
2018-12-31T17:24:55.322Z,49.93
2018-12-31T17:27:25.332Z,45.50
2018-12-31T17:29:54.593Z,47.37
2018-12-31T17:32:23.798Z,63.80
2018-12-31T17:34:53.434Z,47.47
2018-12-31T17:37:22.771Z,51.27
2018-12-31T17:39:52.158Z,49.47
2018-12-31T17:42:21.424Z,50.77
2018-12-31T17:44:50.971Z,48.63
2018-12-31T17:47:20.272Z,47.90
2018-12-31T17:49:49.530Z,43.93
2018-12-31T17:52:21.866Z,46.00
2018-12-31T17:54:54.790Z,44.60
2018-12-31T17:57:24.362Z,51.37
2018-12-31T17:59:54.608Z,49.30
2018-12-31T18:02:25.573Z,44.10
2018-12-31T18:04:57.552Z,42.20
2018-12-31T18:07:26.798Z,42.70
2018-12-31T18:09:56.437Z,43.77
2018-12-31T18:12:25.605Z,43.53
2018-12-31T18:14:55.096Z,44.77
2018-12-31T18:17:24.423Z,46.20
2018-12-31T18:19:53.564Z,49.27
2018-12-31T18:22:22.802Z,49.40
2018-12-31T18:24:51.992Z,67.10
2018-12-31T18:27:21.370Z,92.77
2018-12-31T18:29:50.624Z,65.77
2018-12-31T18:32:19.853Z,102.50
2018-12-31T18:34:56.972Z,59.67
2018-12-31T18:37:26.907Z,185.20
2018-12-31T18:39:58.139Z,109.83
2018-12-31T18:42:27.234Z,82.80
2018-12-31T18:44:56.466Z,78.03
2018-12-31T18:47:26.063Z,72.17
2018-12-31T18:49:58.641Z,58.40
2018-12-31T18:52:27.820Z,55.53
2018-12-31T18:54:57.069Z,53.53
2018-12-31T18:57:26.388Z,52.07
2018-12-31T18:59:55.742Z,53.57
2018-12-31T19:02:25.156Z,51.03
2018-12-31T19:04:54.554Z,52.00
2018-12-31T19:07:23.831Z,52.70
2018-12-31T19:09:53.073Z,60.47
2018-12-31T19:12:22.539Z,56.27
2018-12-31T19:14:51.709Z,52.80
2018-12-31T19:17:20.865Z,54.53
2018-12-31T19:19:50.086Z,48.07
2018-12-31T19:22:19.217Z,49.37
2018-12-31T19:24:48.470Z,45.07
2018-12-31T19:27:17.989Z,51.60
2018-12-31T19:29:47.192Z,47.90
2018-12-31T19:32:16.488Z,44.53
2018-12-31T19:34:45.790Z,49.10
2018-12-31T19:37:15.242Z,64.43
2018-12-31T19:39:44.728Z,55.15
2018-12-31T19:42:13.913Z,55.30
2018-12-31T19:44:43.133Z,79.85
2018-12-31T19:47:12.398Z,60.20
2018-12-31T19:49:41.752Z,50.30
2018-12-31T19:52:11.298Z,50.30
2018-12-31T19:54:40.520Z,86.23
2018-12-31T19:57:09.847Z,74.93
2018-12-31T19:59:39.053Z,57.37
2018-12-31T20:02:08.553Z,59.37
2018-12-31T20:04:37.927Z,61.47
2018-12-31T20:07:07.204Z,55.70
2018-12-31T20:09:38.214Z,51.40
2018-12-31T20:12:07.410Z,69.10
2018-12-31T20:14:36.648Z,57.60
2018-12-31T20:17:06.070Z,54.93
2018-12-31T20:19:35.232Z,61.50
2018-12-31T20:22:04.479Z,51.10
2018-12-31T20:24:33.840Z,48.30
2018-12-31T20:27:03.056Z,54.70
2018-12-31T20:29:32.946Z,52.53
2018-12-31T20:32:02.179Z,75.67
2018-12-31T20:34:31.566Z,75.43
2018-12-31T20:37:00.910Z,74.00
2018-12-31T20:39:30.141Z,77.00
2018-12-31T20:41:59.334Z,68.47
2018-12-31T20:44:28.578Z,61.20
2018-12-31T20:46:57.776Z,59.60
2018-12-31T20:49:28.275Z,65.13
2018-12-31T20:51:57.768Z,76.57
2018-12-31T20:54:27.048Z,65.60
2018-12-31T20:56:56.708Z,54.40
2018-12-31T20:59:25.960Z,53.90
2018-12-31T21:01:55.250Z,52.27
2018-12-31T21:04:25.979Z,50.70
2018-12-31T21:06:55.282Z,49.20
2018-12-31T21:09:24.918Z,51.50
2018-12-31T21:11:54.122Z,51.50
2018-12-31T21:14:23.554Z,71.00
2018-12-31T21:16:52.817Z,92.30
2018-12-31T21:19:22.184Z,115.60
2018-12-31T21:21:51.592Z,104.60
2018-12-31T21:24:20.892Z,85.80
2018-12-31T21:26:50.131Z,78.07
2018-12-31T21:29:19.406Z,80.90
2018-12-31T21:31:48.672Z,87.30
2018-12-31T21:34:18.404Z,94.03
2018-12-31T21:36:48.052Z,81.23
2018-12-31T21:39:17.226Z,84.03
2018-12-31T21:41:46.416Z,81.20
2018-12-31T21:44:15.685Z,71.00
2018-12-31T21:46:45.532Z,69.17
2018-12-31T21:49:14.657Z,63.67
2018-12-31T21:51:43.830Z,58.20
2018-12-31T21:54:13.086Z,54.20
2018-12-31T21:56:43.038Z,47.97
2018-12-31T21:59:12.770Z,45.78
2018-12-31T22:01:42.160Z,41.88
2018-12-31T22:04:11.508Z,43.10
2018-12-31T22:06:40.916Z,48.25
2018-12-31T22:09:10.206Z,57.80
2018-12-31T22:11:39.871Z,56.33
2018-12-31T22:14:09.455Z,55.25
2018-12-31T22:16:38.755Z,55.77
2018-12-31T22:19:08.274Z,51.80
2018-12-31T22:21:37.612Z,50.77
2018-12-31T22:24:07.056Z,62.03
2018-12-31T22:26:36.306Z,63.00
2018-12-31T22:29:06.071Z,54.98
2018-12-31T22:31:36.196Z,55.25
2018-12-31T22:34:05.688Z,58.15
2018-12-31T22:36:35.110Z,63.23
2018-12-31T22:39:06.132Z,54.53
2018-12-31T22:41:35.778Z,57.90
2018-12-31T22:44:05.088Z,96.17
2018-12-31T22:46:34.358Z,70.62
2018-12-31T22:49:03.934Z,64.35
2018-12-31T22:51:33.115Z,54.40
2018-12-31T22:54:02.332Z,58.50
2018-12-31T22:56:31.648Z,101.50
2018-12-31T22:59:00.971Z,346.40
2018-12-31T23:01:30.594Z,224.00
2018-12-31T23:03:59.842Z,368.00
2018-12-31T23:06:29.182Z,467.80
2018-12-31T23:08:58.589Z,550.92
2018-12-31T23:11:27.804Z,810.15
2018-12-31T23:13:58.658Z,682.65
2018-12-31T23:16:28.670Z,850.68
2018-12-31T23:18:58.042Z,815.27
2018-12-31T23:21:27.273Z,746.63
2018-12-31T23:23:56.458Z,614.25
2018-12-31T23:26:25.673Z,618.35
2018-12-31T23:28:54.864Z,522.95
2018-12-31T23:31:24.163Z,476.85
2018-12-31T23:33:54.293Z,414.35
2018-12-31T23:36:24.508Z,407.27
2018-12-31T23:38:54.154Z,411.65
2018-12-31T23:41:23.404Z,405.40
2018-12-31T23:43:52.876Z,380.77
2018-12-31T23:46:22.226Z,401.15
2018-12-31T23:48:51.502Z,383.93
2018-12-31T23:51:21.827Z,265.07
2018-12-31T23:53:51.326Z,218.05
2018-12-31T23:56:20.748Z,197.45
2018-12-31T23:58:49.991Z,192.43
